createdAt,value
2023-11-29T00:01:33.235Z,99160.22
2023-11-29T00:04:01.824Z,99159.19
2023-11-29T00:06:30.478Z,99163.56
2023-11-29T00:08:59.061Z,99171.69
2023-11-29T00:11:28.338Z,99168.25
2023-11-29T00:13:58.362Z,99158.31
2023-11-29T00:16:26.883Z,99160.50
2023-11-29T00:18:55.517Z,99163.75
2023-11-29T00:21:24.083Z,99158.38
2023-11-29T00:23:52.606Z,99173.75
2023-11-29T00:26:24.095Z,99171.03
2023-11-29T00:28:53.206Z,99180.28
2023-11-29T00:31:23.311Z,99171.44
2023-11-29T00:33:51.822Z,99174.91
2023-11-29T00:36:20.370Z,99173.88
2023-11-29T00:38:48.937Z,99185.34
2023-11-29T00:41:17.462Z,99188.50
2023-11-29T00:43:46.267Z,99195.53
2023-11-29T00:46:15.429Z,99198.31
2023-11-29T00:48:45.369Z,99202.91
2023-11-29T00:51:13.907Z,99205.16
2023-11-29T00:53:42.492Z,99211.09
2023-11-29T00:56:11.568Z,99213.88
2023-11-29T00:58:40.089Z,99215.16
2023-11-29T01:01:08.733Z,99218.91
2023-11-29T01:03:37.342Z,99209.00
2023-11-29T01:06:08.176Z,99216.41
2023-11-29T01:08:36.939Z,99225.09
2023-11-29T01:11:06.611Z,99222.06
2023-11-29T01:13:35.211Z,99227.00
2023-11-29T01:16:03.794Z,99220.22
2023-11-29T01:18:34.432Z,99214.31
2023-11-29T01:21:03.737Z,99213.31
2023-11-29T01:23:33.789Z,99219.22
2023-11-29T01:26:02.572Z,99213.31
2023-11-29T01:28:31.128Z,99208.84
2023-11-29T01:30:59.611Z,99218.19
2023-11-29T01:33:28.323Z,99223.28
2023-11-29T01:35:56.845Z,99222.44
2023-11-29T01:38:25.701Z,99225.78
2023-11-29T01:41:02.288Z,99224.50
2023-11-29T01:43:30.865Z,99218.03
2023-11-29T01:45:59.829Z,99221.47
2023-11-29T01:48:29.512Z,99220.72
2023-11-29T01:50:59.514Z,99218.97
2023-11-29T01:53:30.282Z,99208.59
2023-11-29T01:56:00.373Z,99211.78
2023-11-29T01:58:30.189Z,99215.13
2023-11-29T02:01:03.068Z,99224.84
2023-11-29T02:03:31.656Z,99221.88
2023-11-29T02:06:00.480Z,99224.25
2023-11-29T02:08:31.492Z,99218.69
2023-11-29T02:11:01.534Z,99226.47
2023-11-29T02:13:30.094Z,99227.53
2023-11-29T02:15:58.579Z,99221.31
2023-11-29T02:18:27.120Z,99223.81
2023-11-29T02:20:55.857Z,99221.13
2023-11-29T02:23:27.429Z,99230.19
2023-11-29T02:25:57.430Z,99235.00
2023-11-29T02:28:25.875Z,99229.94
2023-11-29T02:30:54.401Z,99236.97
2023-11-29T02:33:23.186Z,99237.34
2023-11-29T02:35:51.643Z,99228.09
2023-11-29T02:38:20.884Z,99238.28
2023-11-29T02:40:49.370Z,99230.56
2023-11-29T02:43:19.410Z,99243.16
2023-11-29T02:45:47.940Z,99227.81
2023-11-29T02:48:16.483Z,99234.47
2023-11-29T02:50:45.612Z,99223.34
2023-11-29T02:53:14.193Z,99231.97
2023-11-29T02:55:42.963Z,99238.84
2023-11-29T02:58:11.656Z,99233.34
2023-11-29T03:00:41.612Z,99236.44
2023-11-29T03:03:10.302Z,99241.88
2023-11-29T03:05:38.921Z,99243.91
2023-11-29T03:08:09.363Z,99241.31
2023-11-29T03:10:37.934Z,99243.91
2023-11-29T03:13:06.440Z,99240.38
2023-11-29T03:15:35.008Z,99245.88
2023-11-29T03:18:05.409Z,99242.97
2023-11-29T03:20:34.119Z,99248.28
2023-11-29T03:23:02.624Z,99239.47
2023-11-29T03:25:31.133Z,99242.06
2023-11-29T03:27:59.742Z,99249.19
2023-11-29T03:30:28.231Z,99244.00
2023-11-29T03:32:56.760Z,99247.06
2023-11-29T03:35:26.773Z,99246.69
2023-11-29T03:37:55.439Z,99250.13
2023-11-29T03:40:23.909Z,99251.50
2023-11-29T03:42:52.336Z,99244.84
2023-11-29T03:45:20.867Z,99244.66
2023-11-29T03:47:50.224Z,99246.88
2023-11-29T03:50:18.813Z,99252.06
2023-11-29T03:52:49.143Z,99250.88
2023-11-29T03:55:18.274Z,99243.53
2023-11-29T03:57:46.886Z,99248.34
2023-11-29T04:00:16.523Z,99242.16
2023-11-29T04:02:45.122Z,99248.16
2023-11-29T04:05:15.112Z,99250.38
2023-11-29T04:07:43.929Z,99246.97
2023-11-29T04:10:14.012Z,99251.88
2023-11-29T04:12:42.929Z,99237.97
2023-11-29T04:15:11.929Z,99244.09
2023-11-29T04:17:40.564Z,99247.41
2023-11-29T04:20:10.320Z,99247.41
2023-11-29T04:22:39.633Z,99248.28
2023-11-29T04:25:09.755Z,99242.91
2023-11-29T04:27:39.800Z,99249.47
2023-11-29T04:30:09.859Z,99246.69
2023-11-29T04:32:38.538Z,99247.59
2023-11-29T04:35:08.593Z,99239.56
2023-11-29T04:37:37.128Z,99240.00
2023-11-29T04:40:06.377Z,99242.34
2023-11-29T04:42:34.886Z,99233.34
2023-11-29T04:45:05.128Z,99236.66
2023-11-29T04:47:33.678Z,99230.56
2023-11-29T04:50:02.312Z,99241.47
2023-11-29T04:52:32.114Z,99239.47
2023-11-29T04:55:00.647Z,99237.50
2023-11-29T04:57:29.278Z,99234.63
2023-11-29T04:59:57.844Z,99237.78
2023-11-29T05:02:28.384Z,99240.91
2023-11-29T05:04:57.119Z,99243.31
2023-11-29T05:07:25.661Z,99231.81
2023-11-29T05:09:54.579Z,99232.00
2023-11-29T05:12:23.085Z,99226.94
2023-11-29T05:14:51.751Z,99227.88
2023-11-29T05:17:20.618Z,99226.75
2023-11-29T05:19:51.600Z,99236.13
2023-11-29T05:22:20.235Z,99236.69
2023-11-29T05:24:48.756Z,99239.16
2023-11-29T05:27:17.339Z,99228.97
2023-11-29T05:29:45.914Z,99237.88
2023-11-29T05:32:14.652Z,99238.53
2023-11-29T05:34:43.157Z,99234.81
2023-11-29T05:37:13.247Z,99237.78
2023-11-29T05:39:41.653Z,99235.00
2023-11-29T05:42:10.379Z,99234.63
2023-11-29T05:44:38.963Z,99234.63
2023-11-29T05:47:08.319Z,99237.31
2023-11-29T05:49:37.013Z,99234.09
2023-11-29T05:52:05.985Z,99233.16
2023-11-29T05:54:38.680Z,99245.81
2023-11-29T05:57:07.487Z,99232.47
2023-11-29T05:59:37.559Z,99239.06
2023-11-29T06:02:06.824Z,99237.19
2023-11-29T06:04:35.473Z,99238.66
2023-11-29T06:07:04.133Z,99241.06
2023-11-29T06:09:32.751Z,99240.94
2023-11-29T06:12:03.128Z,99239.94
2023-11-29T06:14:31.671Z,99244.47
2023-11-29T06:17:00.566Z,99243.66
2023-11-29T06:19:29.502Z,99240.13
2023-11-29T06:21:58.188Z,99248.47
2023-11-29T06:24:26.948Z,99248.47
2023-11-29T06:26:55.551Z,99244.00
2023-11-29T06:29:25.514Z,99244.75
2023-11-29T06:31:54.164Z,99250.66
2023-11-29T06:34:23.080Z,99250.31
2023-11-29T06:36:52.076Z,99252.56
2023-11-29T06:39:20.942Z,99249.03
2023-11-29T06:41:49.808Z,99258.56
2023-11-29T06:44:18.588Z,99254.03
2023-11-29T06:46:50.089Z,99269.81
2023-11-29T06:49:18.807Z,99253.56
2023-11-29T06:51:47.917Z,99264.63
2023-11-29T06:54:16.428Z,99264.41
2023-11-29T06:56:44.940Z,99261.94
2023-11-29T06:59:13.533Z,99264.47
2023-11-29T07:01:42.457Z,99266.22
2023-11-29T07:04:12.802Z,99269.00
2023-11-29T07:06:41.491Z,99273.44
2023-11-29T07:09:10.403Z,99285.38
2023-11-29T07:11:38.984Z,99295.16
2023-11-29T07:14:08.161Z,99288.25
2023-11-29T07:16:37.105Z,99289.81
2023-11-29T07:19:06.753Z,99277.31
2023-11-29T07:21:36.703Z,99286.00
2023-11-29T07:24:06.884Z,99280.72
2023-11-29T07:26:35.544Z,99286.56
2023-11-29T07:29:04.949Z,99290.25
2023-11-29T07:31:34.562Z,99293.47
2023-11-29T07:34:03.202Z,99286.16
2023-11-29T07:36:33.032Z,99281.72
2023-11-29T07:39:03.418Z,99284.94
2023-11-29T07:41:32.497Z,99280.91
2023-11-29T07:44:01.188Z,99287.31
2023-11-29T07:46:29.682Z,99284.19
2023-11-29T07:49:00.928Z,99282.03
2023-11-29T07:51:31.412Z,99285.84
2023-11-29T07:54:00.297Z,99290.38
2023-11-29T07:56:30.235Z,99284.00
2023-11-29T07:58:58.995Z,99283.81
2023-11-29T08:01:27.604Z,99284.47
2023-11-29T08:03:56.232Z,99285.00
2023-11-29T08:06:24.698Z,99293.34
2023-11-29T08:08:53.222Z,99295.69
2023-11-29T08:11:22.552Z,99296.22
2023-11-29T08:13:52.904Z,99298.81
2023-11-29T08:16:22.406Z,99296.53
2023-11-29T08:18:53.213Z,99297.25
2023-11-29T08:21:22.304Z,99292.91
2023-11-29T08:23:50.850Z,99299.94
2023-11-29T08:26:19.381Z,99303.53
2023-11-29T08:28:47.908Z,99302.78
2023-11-29T08:31:18.490Z,99309.38
2023-11-29T08:33:47.035Z,99319.03
2023-11-29T08:36:16.508Z,99316.44
2023-11-29T08:38:45.095Z,99316.25
2023-11-29T08:41:13.684Z,99320.94
2023-11-29T08:43:42.226Z,99325.88
2023-11-29T08:46:10.756Z,99328.56
2023-11-29T08:48:40.910Z,99331.91
2023-11-29T08:51:09.887Z,99336.72
2023-11-29T08:53:43.253Z,99335.25
2023-11-29T08:56:18.320Z,99339.28
2023-11-29T08:58:47.807Z,99331.16
2023-11-29T09:01:19.594Z,99327.09
2023-11-29T09:03:50.387Z,99322.09
2023-11-29T09:06:19.593Z,99323.19
2023-11-29T09:08:48.910Z,99312.25
2023-11-29T09:11:17.671Z,99304.84
2023-11-29T09:13:50.294Z,99306.06
2023-11-29T09:16:20.387Z,99306.50
2023-11-29T09:18:50.661Z,99303.53
2023-11-29T09:21:19.255Z,99302.72
2023-11-29T09:23:47.959Z,99302.59
2023-11-29T09:26:16.805Z,99296.06
2023-11-29T09:28:45.318Z,99293.91
2023-11-29T09:31:14.763Z,99292.78
2023-11-29T09:33:44.150Z,99285.56
2023-11-29T09:36:15.673Z,99287.81
2023-11-29T09:38:44.211Z,99292.41
2023-11-29T09:41:13.018Z,99284.63
2023-11-29T09:43:42.433Z,99279.38
2023-11-29T09:46:11.136Z,99280.38
2023-11-29T09:48:39.998Z,99279.47
2023-11-29T09:51:08.594Z,99270.94
2023-11-29T09:53:38.723Z,99273.53
2023-11-29T09:56:09.363Z,99276.31
2023-11-29T09:58:37.848Z,99267.59
2023-11-29T10:01:06.421Z,99262.78
2023-11-29T10:03:36.206Z,99265.00
2023-11-29T10:06:06.801Z,99256.22
2023-11-29T10:08:35.568Z,99254.81
2023-11-29T10:11:07.806Z,99242.06
2023-11-29T10:13:36.230Z,99242.41
2023-11-29T10:16:05.035Z,99234.63
2023-11-29T10:18:34.225Z,99230.06
2023-11-29T10:21:07.522Z,99230.34
2023-11-29T10:23:40.746Z,99234.50
2023-11-29T10:26:11.071Z,99221.25
2023-11-29T10:28:41.668Z,99222.91
2023-11-29T10:31:10.826Z,99222.91
2023-11-29T10:33:42.227Z,99225.38
2023-11-29T10:36:12.520Z,99206.47
2023-11-29T10:38:45.934Z,99212.59
2023-11-29T10:41:18.488Z,99195.69
2023-11-29T10:43:49.495Z,99206.63
2023-11-29T10:46:29.923Z,99191.41
2023-11-29T10:49:06.430Z,99200.47
2023-11-29T10:51:35.623Z,99196.59
2023-11-29T10:54:06.380Z,99188.50
2023-11-29T10:56:36.972Z,99192.88
2023-11-29T10:59:15.925Z,99191.50
2023-11-29T11:01:45.451Z,99190.91
2023-11-29T11:04:14.535Z,99183.06
2023-11-29T11:06:43.308Z,99182.00
2023-11-29T11:09:34.139Z,99178.59
2023-11-29T11:12:04.831Z,99176.19
2023-11-29T11:14:47.247Z,99166.34
2023-11-29T11:17:16.173Z,99164.16
2023-11-29T11:19:46.600Z,99170.09
2023-11-29T11:22:16.201Z,99173.59
2023-11-29T11:25:05.936Z,99162.50
2023-11-29T11:27:37.276Z,99159.44
2023-11-29T11:30:22.214Z,99160.16
2023-11-29T11:32:51.473Z,99161.97
2023-11-29T11:35:36.984Z,99155.72
2023-11-29T11:38:10.413Z,99162.34
2023-11-29T11:40:40.642Z,99162.88
2023-11-29T11:43:12.144Z,99164.75
2023-11-29T11:45:46.776Z,99165.09
2023-11-29T11:48:15.682Z,99161.03
2023-11-29T11:50:44.245Z,99155.72
2023-11-29T11:53:12.785Z,99156.88
2023-11-29T11:55:43.007Z,99155.34
2023-11-29T11:58:14.956Z,99150.59
2023-11-29T12:00:43.700Z,99154.72
2023-11-29T12:03:13.775Z,99144.13
2023-11-29T12:05:43.226Z,99147.38
2023-11-29T12:08:12.125Z,99140.41
2023-11-29T12:10:41.210Z,99144.25
2023-11-29T12:13:09.873Z,99152.44
2023-11-29T12:15:39.943Z,99146.63
2023-11-29T12:18:18.218Z,99143.09
2023-11-29T12:20:47.200Z,99141.97
2023-11-29T12:23:16.603Z,99142.69
2023-11-29T12:25:55.867Z,99138.66
2023-11-29T12:28:26.870Z,99143.19
2023-11-29T12:31:00.124Z,99141.13
2023-11-29T12:33:28.925Z,99133.88
2023-11-29T12:35:57.574Z,99137.06
2023-11-29T12:38:26.473Z,99146.84
2023-11-29T12:40:55.450Z,99136.47
2023-11-29T12:43:24.079Z,99145.78
2023-11-29T12:45:52.636Z,99140.81
2023-11-29T12:48:22.986Z,99141.22
2023-11-29T12:50:51.557Z,99133.94
2023-11-29T12:53:20.587Z,99133.22
2023-11-29T12:55:49.162Z,99131.88
2023-11-29T12:58:17.984Z,99128.44
2023-11-29T13:00:47.545Z,99134.97
2023-11-29T13:03:16.560Z,99126.97
2023-11-29T13:05:47.121Z,99129.06
2023-11-29T13:08:15.788Z,99127.38
2023-11-29T13:10:44.493Z,99136.41
2023-11-29T13:13:13.182Z,99126.06
2023-11-29T13:15:41.864Z,99128.78
2023-11-29T13:18:10.530Z,99119.09
2023-11-29T13:20:39.290Z,99117.16
2023-11-29T13:23:09.256Z,99109.41
2023-11-29T13:25:38.039Z,99102.84
2023-11-29T13:28:06.665Z,99104.09
2023-11-29T13:30:35.228Z,99096.78
2023-11-29T13:33:03.990Z,99100.88
2023-11-29T13:35:32.545Z,99098.22
2023-11-29T13:38:01.392Z,99103.00
2023-11-29T13:40:31.528Z,99103.28
2023-11-29T13:43:00.664Z,99097.44
2023-11-29T13:45:29.229Z,99105.44
2023-11-29T13:47:58.034Z,99102.94
2023-11-29T13:50:26.781Z,99105.03
2023-11-29T13:52:55.411Z,99105.72
2023-11-29T13:55:24.254Z,99104.06
2023-11-29T13:57:54.206Z,99099.72
2023-11-29T14:00:23.334Z,99105.28
2023-11-29T14:02:52.391Z,99109.94
2023-11-29T14:05:22.613Z,99115.78
2023-11-29T14:07:51.233Z,99111.94
2023-11-29T14:10:20.594Z,99107.16
2023-11-29T14:12:49.078Z,99113.84
2023-11-29T14:15:19.492Z,99112.09
2023-11-29T14:17:48.161Z,99111.47
2023-11-29T14:20:19.076Z,99111.91
2023-11-29T14:22:47.548Z,99120.53
2023-11-29T14:25:16.121Z,99116.09
2023-11-29T14:27:51.914Z,99117.56
2023-11-29T14:30:27.123Z,99110.16
2023-11-29T14:32:55.684Z,99107.75
2023-11-29T14:35:24.207Z,99111.69
2023-11-29T14:37:52.779Z,99103.78
2023-11-29T14:40:21.481Z,99108.94
2023-11-29T14:42:50.027Z,99111.06
2023-11-29T14:45:18.602Z,99106.34
2023-11-29T14:47:51.343Z,99114.94
2023-11-29T14:50:19.987Z,99102.41
2023-11-29T14:52:48.954Z,99112.59
2023-11-29T14:55:17.753Z,99104.94
2023-11-29T14:57:46.220Z,99102.34
2023-11-29T15:00:16.223Z,99104.94
2023-11-29T15:02:45.210Z,99110.41
2023-11-29T15:05:15.181Z,99095.69
2023-11-29T15:07:43.731Z,99106.38
2023-11-29T15:10:12.232Z,99104.81
2023-11-29T15:12:40.713Z,99097.34
2023-11-29T15:15:10.270Z,99100.00
2023-11-29T15:17:38.888Z,99100.41
2023-11-29T15:20:09.506Z,99114.75
2023-11-29T15:22:39.503Z,99114.09
2023-11-29T15:25:14.750Z,99111.63
2023-11-29T15:27:48.440Z,99107.44
2023-11-29T15:30:17.387Z,99110.75
2023-11-29T15:32:47.986Z,99102.25
2023-11-29T15:35:18.407Z,99093.53
2023-11-29T15:37:48.398Z,99090.22
2023-11-29T15:40:17.718Z,99101.72
2023-11-29T15:42:46.298Z,99097.25
2023-11-29T15:45:14.872Z,99100.50
2023-11-29T15:47:43.395Z,99095.22
2023-11-29T15:50:12.741Z,99094.66
2023-11-29T15:52:41.246Z,99105.03
2023-11-29T15:55:11.700Z,99105.78
2023-11-29T15:57:40.173Z,99098.19
2023-11-29T16:00:10.288Z,99104.84
2023-11-29T16:02:39.268Z,99110.03
2023-11-29T16:05:08.522Z,99102.25
2023-11-29T16:07:38.331Z,99106.63
2023-11-29T16:10:07.907Z,99102.38
2023-11-29T16:12:37.954Z,99098.09
2023-11-29T16:15:07.708Z,99096.25
2023-11-29T16:17:36.381Z,99091.34
2023-11-29T16:20:05.166Z,99097.25
2023-11-29T16:22:33.812Z,99094.84
2023-11-29T16:25:02.311Z,99100.03
2023-11-29T16:27:36.931Z,99085.81
2023-11-29T16:30:08.738Z,99094.13
2023-11-29T16:32:37.584Z,99092.56
2023-11-29T16:35:07.506Z,99091.84
2023-11-29T16:37:35.002Z,99090.44
2023-11-29T16:40:03.492Z,99083.22
2023-11-29T16:42:33.666Z,99095.06
2023-11-29T16:45:02.347Z,99093.38
2023-11-29T16:47:32.354Z,99088.94
2023-11-29T16:50:01.240Z,99092.94
2023-11-29T16:52:29.754Z,99078.19
2023-11-29T16:54:58.596Z,99080.78
2023-11-29T16:57:27.191Z,99078.19
2023-11-29T16:59:55.862Z,99079.66
2023-11-29T17:02:24.636Z,99075.22
2023-11-29T17:04:54.900Z,99077.81
2023-11-29T17:07:23.378Z,99079.66
2023-11-29T17:09:51.814Z,99078.00
2023-11-29T17:12:20.394Z,99072.81
2023-11-29T17:14:50.467Z,99077.81
2023-11-29T17:17:23.050Z,99080.50
2023-11-29T17:19:54.193Z,99064.22
2023-11-29T17:22:22.713Z,99070.94
2023-11-29T17:24:51.282Z,99074.47
2023-11-29T17:27:20.883Z,99066.81
2023-11-29T17:29:49.715Z,99076.31
2023-11-29T17:32:18.224Z,99076.53
2023-11-29T17:34:46.716Z,99072.19
2023-11-29T17:37:17.978Z,99070.41
2023-11-29T17:39:46.690Z,99066.34
2023-11-29T17:42:15.583Z,99065.53
2023-11-29T17:44:44.123Z,99069.69
2023-11-29T17:47:13.369Z,99070.81
2023-11-29T17:49:41.868Z,99062.22
2023-11-29T17:52:10.738Z,99070.59
2023-11-29T17:54:40.751Z,99068.66
2023-11-29T17:57:09.390Z,99076.53
2023-11-29T17:59:38.237Z,99072.06
2023-11-29T18:02:07.715Z,99076.13
2023-11-29T18:04:36.675Z,99073.34
2023-11-29T18:07:05.571Z,99075.94
2023-11-29T18:09:34.109Z,99070.38
2023-11-29T18:12:07.203Z,99073.88
2023-11-29T18:14:35.773Z,99080.88
2023-11-29T18:17:04.560Z,99081.00
2023-11-29T18:19:33.582Z,99084.84
2023-11-29T18:22:02.085Z,99071.88
2023-11-29T18:24:30.542Z,99076.44
2023-11-29T18:26:59.057Z,99079.94
2023-11-29T18:29:30.095Z,99079.34
2023-11-29T18:31:58.573Z,99085.13
2023-11-29T18:34:27.123Z,99089.41
2023-11-29T18:36:55.659Z,99084.50
2023-11-29T18:39:24.252Z,99083.47
2023-11-29T18:41:52.744Z,99078.59
2023-11-29T18:44:21.879Z,99079.53
2023-11-29T18:46:51.884Z,99075.34
2023-11-29T18:49:21.157Z,99068.69
2023-11-29T18:51:50.139Z,99083.44
2023-11-29T18:54:18.731Z,99067.63
2023-11-29T18:56:50.535Z,99068.00
2023-11-29T18:59:19.575Z,99080.25
2023-11-29T19:01:49.181Z,99068.00
2023-11-29T19:04:23.303Z,99069.69
2023-11-29T19:06:51.921Z,99070.59
2023-11-29T19:09:21.419Z,99077.44
2023-11-29T19:11:50.036Z,99071.91
2023-11-29T19:14:18.797Z,99073.59
2023-11-29T19:16:47.885Z,99068.59
2023-11-29T19:19:16.421Z,99069.72
2023-11-29T19:21:46.542Z,99071.56
2023-11-29T19:24:15.205Z,99071.50
2023-11-29T19:26:43.712Z,99068.16
2023-11-29T19:29:12.230Z,99064.34
2023-11-29T19:31:40.838Z,99066.84
2023-11-29T19:34:10.064Z,99064.25
2023-11-29T19:36:38.537Z,99068.41
2023-11-29T19:39:08.407Z,99067.59
2023-11-29T19:41:37.149Z,99073.41
2023-11-29T19:44:05.965Z,99060.34
2023-11-29T19:46:34.529Z,99061.91
2023-11-29T19:49:03.120Z,99059.31
2023-11-29T19:51:31.549Z,99059.22
2023-11-29T19:54:00.149Z,99066.06
2023-11-29T19:56:30.107Z,99058.00
2023-11-29T19:58:58.607Z,99060.38
2023-11-29T20:01:29.085Z,99071.50
2023-11-29T20:03:57.567Z,99064.38
2023-11-29T20:06:31.420Z,99071.81
2023-11-29T20:09:04.012Z,99071.25
2023-11-29T20:11:37.053Z,99061.31
2023-11-29T20:14:10.892Z,99074.00
2023-11-29T20:16:45.154Z,99067.78
2023-11-29T20:19:13.763Z,99073.41
2023-11-29T20:21:42.317Z,99071.44
2023-11-29T20:24:10.838Z,99065.09
2023-11-29T20:26:40.755Z,99069.88
2023-11-29T20:29:09.243Z,99072.00
2023-11-29T20:31:38.542Z,99068.47
2023-11-29T20:34:14.828Z,99069.94
2023-11-29T20:36:49.949Z,99071.19
2023-11-29T20:39:18.967Z,99067.25
2023-11-29T20:41:51.128Z,99069.63
2023-11-29T20:44:20.083Z,99065.16
2023-11-29T20:46:49.033Z,99061.84
2023-11-29T20:49:17.494Z,99071.50
2023-11-29T20:51:45.976Z,99062.88
2023-11-29T20:54:14.441Z,99060.59
2023-11-29T20:56:43.024Z,99057.78
2023-11-29T20:59:13.689Z,99055.41
2023-11-29T21:01:42.680Z,99065.56
2023-11-29T21:04:13.193Z,99057.16
2023-11-29T21:06:42.060Z,99057.06
2023-11-29T21:09:10.757Z,99061.13
2023-11-29T21:11:39.769Z,99065.38
2023-11-29T21:14:08.584Z,99053.94
2023-11-29T21:16:38.660Z,99057.06
2023-11-29T21:19:07.346Z,99058.50
2023-11-29T21:21:35.998Z,99056.44
2023-11-29T21:24:05.995Z,99060.28
2023-11-29T21:26:34.791Z,99061.63
2023-11-29T21:29:03.472Z,99056.66
2023-11-29T21:31:33.425Z,99056.34
2023-11-29T21:34:03.604Z,99032.66
2023-11-29T21:36:32.118Z,99047.47
2023-11-29T21:39:01.502Z,99032.09
2023-11-29T21:41:33.181Z,99034.34
2023-11-29T21:44:01.968Z,99019.47
2023-11-29T21:46:30.561Z,99018.53
2023-11-29T21:48:59.255Z,99025.41
2023-11-29T21:51:30.585Z,99029.66
2023-11-29T21:53:59.378Z,99022.78
2023-11-29T21:56:28.180Z,99026.25
2023-11-29T21:58:56.664Z,99025.41
2023-11-29T22:01:26.327Z,99031.31
2023-11-29T22:03:55.084Z,99028.63
2023-11-29T22:06:25.808Z,99029.56
2023-11-29T22:08:55.828Z,99032.03
2023-11-29T22:11:24.416Z,99030.16
2023-11-29T22:13:53.215Z,99033.91
2023-11-29T22:16:25.553Z,99027.06
2023-11-29T22:18:56.121Z,99032.03
2023-11-29T22:21:26.746Z,99031.81
2023-11-29T22:23:57.602Z,99031.81
2023-11-29T22:26:27.433Z,99027.47
2023-11-29T22:28:56.020Z,99024.03
2023-11-29T22:31:24.616Z,99024.03
2023-11-29T22:33:53.158Z,99016.44
2023-11-29T22:36:22.430Z,99027.47
2023-11-29T22:38:51.409Z,99028.28
2023-11-29T22:41:26.051Z,99026.41
2023-11-29T22:43:55.324Z,99018.81
2023-11-29T22:46:26.382Z,99021.84
2023-11-29T22:48:55.336Z,99020.78
2023-11-29T22:51:25.459Z,99027.63
2023-11-29T22:53:54.248Z,99030.94
2023-11-29T22:56:27.454Z,99017.00
2023-11-29T22:58:56.037Z,99018.78
2023-11-29T23:01:28.538Z,99023.88
2023-11-29T23:03:57.482Z,99011.81
2023-11-29T23:06:26.507Z,99017.00
2023-11-29T23:08:55.540Z,99022.34
2023-11-29T23:11:24.346Z,99015.34
2023-11-29T23:13:54.533Z,99014.41
2023-11-29T23:16:23.298Z,99007.47
2023-11-29T23:18:52.166Z,99004.94
2023-11-29T23:21:21.552Z,99008.50
2023-11-29T23:23:50.282Z,99001.63
2023-11-29T23:26:19.200Z,99004.00
2023-11-29T23:28:47.922Z,99011.59
2023-11-29T23:31:17.954Z,99007.22
2023-11-29T23:33:46.536Z,99012.44
2023-11-29T23:36:15.087Z,99014.91
2023-11-29T23:38:43.717Z,99014.69
2023-11-29T23:41:15.822Z,99013.97
2023-11-29T23:43:44.473Z,99019.88
2023-11-29T23:46:13.190Z,99013.88
2023-11-29T23:48:43.122Z,99015.19
2023-11-29T23:51:13.614Z,99015.81
2023-11-29T23:53:43.546Z,99011.66
2023-11-29T23:56:14.267Z,99012.41
2023-11-29T23:58:43.246Z,99000.94
